Sky Valley (157, 625) Station Data

Red Flag Warning: No
Fire Weather Zone: 250
SDGE Region: Mountain Empire
Lat/Lon: 32.721/-116.702

Observations

Time Wind Speed/Gust Temp(F) RH Fuel Moist Fuel Temp(F) Dewpt(F) Tmax(F) Tmin(F) Accum Precip 10-min Precip SL Press(mb)
6/22 4:50am 269 2 G 3 69° 42% - - 45° 74.6° 68.5° - - -
6/22 4:40am 294 2 G 4 69° 42% - - 45° 74.6° 68.5° - - -
6/22 4:30am 297 2 G 3 71° 40% - - 45° 74.6° 69.6° - - -
6/22 4:20am 258 2 G 2 71° 40% - - 45° 74.6° 69.6° - - -
6/22 4:10am 307 2 G 3 71° 41% - - 46° 74.6° 69.6° - - -
6/22 4:00am 300 2 G 4 71° 41% - - 46° 74.6° 69.6° - - -
6/22 3:50am 320 2 G 4 71° 42% - - 46° 74.6° 69.6° - - -
6/22 3:40am 289 2 G 4 70° 43% - - 46° 74.6° 69.6° - - -
6/22 3:30am 303 2 G 4 71° 43% - - 47° 74.6° 69.8° - - -
6/22 3:20am 314 3 G 5 70° 45% - - 48° 74.6° 69.9° - - -
6/22 3:10am 293 2 G 3 70° 45% - - 48° 74.6° 70.2° - - -
6/22 3:00am 310 2 G 3 71° 44% - - 48° 74.6° 70.7° - - -
6/22 2:50am 321 3 G 4 71° 45% - - 49° 74.6° 70.7° - - -
6/22 2:40am 334 2 G 4 72° 44% - - 49° 74.6° 70.7° - - -
6/22 2:30am 322 2 G 4 72° 45% - - 49° 74.6° 70.7° - - -
6/22 2:20am 301 2 G 4 71° 45% - - 49° 74.6° 70.7° - - -
6/22 2:10am 276 2 G 4 71° 44% - - 48° 74.6° 70.9° - - -
6/22 2:00am 270 2 G 3 72° 43% - - 48° 74.6° 71.4° - - -
6/22 1:50am 311 1 G 3 72° 44% - - 49° 74.6° 71.6° - - -
6/22 1:40am 330 3 G 4 72° 44% - - 49° 74.6° 71.6° - - -
6/22 1:30am 311 2 G 3 72° 44% - - 49° 74.6° 71.6° - - -
6/22 1:20am 307 1 G 3 72° 43% - - 49° 74.6° 71.9° - - -
6/22 1:10am 318 1 G 2 73° 42% - - 49° 74.6° 72.3° - - -
6/22 1:00am 324 2 G 3 73° 43% - - 49° 74.6° 72.3° - - -
6/22 12:50am 321 2 G 4 74° 41% - - 49° 74.6° 72.6° - - -
6/22 12:40am 322 2 G 4 74° 42% - - 49° 74.6° 73.2° - - -
6/22 12:30am 310 2 G 4 74° 42% - - 49° 74.6° 73.3° - - -
6/22 12:20am 284 2 G 4 74° 41% - - 49° 74.6° 73.5° - - -
6/22 12:10am 261 2 G 3 74° 40% - - 49° 74.6° 73.7° - - -
6/22 12:00am 301 2 G 4 74° 43% - - 50° 100.5° 72.7° - - -
6/21 11:50pm 328 3 G 5 74° 42% - - 50° 100.5° 72.7° - - -
6/21 11:40pm 313 2 G 3 75° 42% - - 50° 100.5° 72.7° - - -
6/21 11:30pm 319 4 G 5 74° 42% - - 50° 100.5° 72.7° - - -
6/21 11:20pm 347 2 G 5 75° 39% - - 48° 100.5° 72.7° - - -
6/21 11:10pm 339 2 G 4 75° 39% - - 49° 100.5° 72.7° - - -
6/21 11:00pm 324 2 G 4 75° 40% - - 49° 100.5° 72.7° - - -
6/21 10:50pm 321 2 G 3 75° 39% - - 49° 100.5° 72.7° - - -
6/21 10:40pm 316 3 G 4 76° 38% - - 48° 100.5° 72.7° - - -
6/21 10:30pm 327 4 G 4 76° 37% - - 48° 100.5° 72.7° - - -
6/21 10:20pm 325 3 G 4 76° 36% - - 47° 100.5° 72.7° - - -
6/21 10:10pm 351 1 G 3 77° 35% - - 48° 100.5° 72.7° - - -
6/21 10:00pm 299 2 G 4 78° 33% - - 47° 100.5° 72.7° - - -
6/21 9:50pm 275 2 G 4 78° 35% - - 48° 100.5° 72.7° - - -
6/21 9:40pm 328 4 G 5 79° 33% - - 48° 100.5° 72.7° - - -
6/21 9:30pm 325 4 G 5 78° 35% - - 48° 100.5° 72.7° - - -
6/21 9:20pm 347 3 G 6 78° 38% - - 51° 100.5° 72.7° - - -
6/21 9:10pm 338 2 G 4 80° 29% - - 45° 100.5° 72.7° - - -
6/21 9:00pm 312 3 G 5 81° 26% - - 42° 100.5° 72.7° - - -
6/21 8:50pm 322 4 G 5 81° 25% - - 42° 100.5° 72.7° - - -
6/21 8:40pm 333 3 G 4 82° 24% - - 42° 100.5° 72.7° - - -
6/21 8:30pm 322 2 G 4 84° 21% - - 40° 100.5° 72.7° - - -
6/21 8:20pm 331 3 G 4 84° 19% - - 38° 100.5° 72.7° - - -
6/21 8:10pm 351 3 G 5 85° 18% - - 37° 100.5° 72.7° - - -
6/21 8:00pm 314 3 G 4 85° 17% - - 35° 100.5° 72.7° - - -
6/21 7:50pm 351 1 G 4 87° 15% - - 34° 100.5° 72.7° - - -
6/21 7:40pm 260 2 G 5 87° 17% - - 36° 100.5° 72.7° - - -
6/21 7:30pm 312 2 G 4 86° 16% - - 34° 100.5° 72.7° - - -
6/21 7:20pm 331 2 G 5 87° 16% - - 35° 100.5° 72.7° - - -
6/21 7:10pm 318 2 G 5 88° 16% - - 37° 100.5° 72.7° - - -
6/21 7:00pm 282 7 G 12 89° 16% - - 36° 100.5° 72.7° - - -
6/21 6:50pm 269 9 G 11 89° 20% - - 42° 100.5° 72.7° - - -
6/21 6:40pm 275 10 G 13 89° 23% - - 47° 100.5° 72.7° - - -
6/21 6:30pm 273 11 G 16 89° 24% - - 48° 100.5° 72.7° - - -
6/21 6:20pm 280 10 G 15 90° 22% - - 47° 100.5° 72.7° - - -
6/21 6:10pm 274 11 G 15 90° 22% - - 47° 100.5° 72.7° - - -
6/21 6:00pm 272 12 G 15 91° 24% - - 49° 100.5° 72.7° - - -
6/21 5:50pm 271 11 G 14 91° 25% - - 50° 100.5° 72.7° - - -
6/21 5:40pm 264 11 G 16 92° 25% - - 51° 100.5° 72.7° - - -
6/21 5:30pm 261 8 G 13 93° 24% - - 51° 100.5° 72.7° - - -
6/21 5:20pm 259 10 G 14 93° 24% - - 51° 100.5° 72.7° - - -
6/21 5:10pm 257 10 G 14 94° 23% - - 50° 100.5° 72.7° - - -
6/21 5:00pm 274 9 G 13 95° 20% - - 47° 100.5° 72.7° - - -
6/21 4:50pm 271 9 G 14 96° 19% - - 47° 100.5° 72.7° - - -
6/21 4:40pm 285 8 G 12 96° 15% - - 41° 100.5° 72.7° - - -
6/21 4:30pm 291 14 G 17 95° 19% - - 45° 100.5° 72.7° - - -
6/21 4:20pm 285 14 G 19 95° 19% - - 46° 100.5° 72.7° - - -
6/21 4:10pm 276 15 G 20 95° 19% - - 47° 100.5° 72.7° - - -
6/21 4:00pm 284 16 G 21 95° 18% - - 45° 100.5° 72.7° - - -
6/21 3:50pm 279 16 G 21 96° 18% - - 46° 100.5° 72.7° - - -
6/21 3:40pm 278 16 G 22 96° 19% - - 46° 100.5° 72.7° - - -
6/21 3:30pm 283 16 G 22 96° 19% - - 47° 100.5° 72.7° - - -
6/21 3:20pm 287 17 G 25 95° 19% - - 47° 100.5° 72.7° - - -
6/21 3:10pm 281 16 G 22 96° 19% - - 47° 100.5° 72.7° - - -
6/21 3:00pm 275 15 G 21 97° 19% - - 47° 100.5° 72.7° - - -
6/21 2:50pm 281 16 G 21 96° 18% - - 46° 100.5° 72.7° - - -
6/21 2:40pm 281 17 G 24 96° 18% - - 46° 100.5° 72.7° - - -
6/21 2:30pm 271 18 G 24 96° 18% - - 46° 100.5° 72.7° - - -
6/21 2:20pm 272 18 G 24 96° 18% - - 45° 100.5° 72.7° - - -
6/21 2:10pm 273 18 G 22 96° 17% - - 44° 100.5° 72.7° - - -
6/21 2:00pm 272 18 G 24 97° 16% - - 43° 100.5° 72.7° - - -
6/21 1:50pm 272 17 G 22 97° 15% - - 42° 100.5° 72.7° - - -
6/21 1:40pm 278 14 G 19 97° 16% - - 43° 100.5° 72.7° - - -
6/21 1:30pm 276 14 G 21 98° 14% - - 40° 100.5° 72.7° - - -
6/21 1:20pm 270 14 G 18 97° 15% - - 42° 100.5° 72.7° - - -
6/21 1:10pm 274 14 G 21 97° 15% - - 42° 100.5° 72.7° - - -
6/21 1:00pm 271 15 G 20 96° 16% - - 44° 100.5° 72.7° - - -
6/21 12:50pm 265 13 G 21 97° 17% - - 45° 100.5° 72.7° - - -
6/21 12:40pm 279 14 G 20 97° 17% - - 44° 100.5° 72.7° - - -
6/21 12:30pm 268 15 G 20 96° 17% - - 44° 100.5° 72.7° - - -
6/21 12:20pm 268 13 G 21 97° 14% - - 40° 100.5° 72.7° - - -
6/21 12:10pm 268 13 G 20 98° 12% - - 36° 100.5° 72.7° - - -
6/21 12:00pm 261 14 G 18 98° 11% - - 33° 100.5° 72.7° - - -
6/21 11:50am 268 12 G 18 99° 11% - - 35° 100.5° 72.7° - - -
6/21 11:40am 268 12 G 18 98° 11% - - 34° 100.5° 72.7° - - -
6/21 11:30am 271 10 G 14 99° 11% - - 36° 100.5° 72.7° - - -
6/21 11:20am 265 8 G 15 98° 11% - - 35° 100.5° 72.7° - - -
6/21 11:10am 251 7 G 14 99° 11% - - 36° 100.5° 72.7° - - -
6/21 11:00am 251 3 G 8 98° 12% - - 37° 100.3° 72.7° - - -
6/21 10:50am 253 4 G 8 99° 11% - - 36° 100.1° 72.7° - - -
6/21 10:40am 45 5 G 12 99° 12% - - 37° 100.1° 72.7° - - -
6/21 10:30am 96 2 G 5 97° 12% - - 36° 98.1° 72.7° - - -
6/21 10:20am 91 4 G 7 96° 13% - - 37° 97° 72.7° - - -
6/21 10:10am 104 4 G 8 96° 13% - - 37° 96.6° 72.7° - - -
6/21 10:00am 176 3 G 5 95° 12% - - 35° 95.7° 72.7° - - -
6/21 9:50am 145 3 G 6 94° 14% - - 38° 95.3° 72.7° - - -
6/21 9:40am 133 3 G 5 93° 15% - - 38° 93.8° 72.7° - - -
6/21 9:30am 138 2 G 5 92° 17% - - 41° 93.4° 72.7° - - -
6/21 9:20am 125 1 G 3 91° 20% - - 44° 91.2° 72.7° - - -
6/21 9:10am 130 1 G 4 89° 21% - - 43° 89.6° 72.7° - - -
6/21 9:00am 191 2 G 4 87° 20% - - 41° 87.9° 72.7° - - -
6/21 8:50am 181 1 G 3 87° 20% - - 40° 87.2° 72.7° - - -
6/21 8:40am 192 1 G 2 86° 20% - - 40° 86.3° 72.7° - - -
6/21 8:30am 155 1 G 3 85° 21% - - 40° 85.4° 72.7° - - -
6/21 8:20am 198 1 G 2 84° 21% - - 39° 84.1° 72.7° - - -
6/21 8:10am 188 1 G 1 83° 19% - - 37° 83.8° 72.7° - - -
6/21 8:00am 166 1 G 2 82° 23% - - 41° 82.8° 72.7° - - -
6/21 7:50am 220 1 G 2 80° 25% - - 41° 81.5° 72.7° - - -
6/21 7:40am 145 1 G 2 80° 27% - - 43° 81° 72.7° - - -
6/21 7:30am 172 1 G 2 80° 29% - - 45° 80.8° 72.7° - - -
6/21 7:20am 80 0 G 2 80° 28% - - 44° 80.8° 72.7° - - -
6/21 7:10am 117 1 G 2 78° 29% - - 43° 79.3° 72.7° - - -
6/21 7:00am 195 1 G 3 76° 28% - - 41° 78.7° 72.7° - - -
6/21 6:50am 203 1 G 3 75° 31% - - 43° 78.7° 72.7° - - -
6/21 6:40am 241 1 G 3 75° 31% - - 43° 78.7° 72.7° - - -
6/21 6:30am 206 1 G 2 75° 32% - - 43° 78.7° 72.7° - - -
6/21 6:20am 259 2 G 2 73° 32% - - 42° 78.7° 72.7° - - -
6/21 6:10am 233 0 G 2 74° 31% - - 42° 78.7° 72.7° - - -
6/21 6:00am 4 1 G 2 74° 31% - - 42° 78.7° 72.7° - - -
6/21 5:50am 176 0 G 1 75° 31% - - 42° 78.7° 72.7° - - -
6/21 5:40am 334 1 G 2 74° 32% - - 42° 78.7° 72.7° - - -
6/21 5:30am 334 1 G 2 74° 32% - - 42° 78.7° 72.7° - - -
6/21 5:20am 302 1 G 2 73° 33% - - 43° 78.7° 72.7° - - -
6/21 5:10am 223 1 G 2 73° 33% - - 43° 78.7° 72.7° - - -
6/21 5:00am 279 2 G 3 73° 34% - - 43° 78.7° 72.8° - - -
6/21 4:50am 299 1 G 2 74° 33% - - 43° 78.7° 73° - - -
6/21 4:40am 257 2 G 4 73° 34% - - 43° 78.7° 73° - - -
6/21 4:30am 278 1 G 2 75° 32% - - 43° 78.7° 73.9° - - -
6/21 4:20am 281 1 G 2 75° 31% - - 42° 78.7° 74.8° - - -
6/21 4:10am 345 1 G 4 76° 30% - - 42° 78.7° 74.8° - - -
6/21 4:00am 314 1 G 3 76° 29% - - 42° 78.7° 74.8° - - -
6/21 3:50am 347 1 G 2 76° 29% - - 42° 78.7° 74.8° - - -
6/21 3:40am 22 2 G 3 76° 29% - - 42° 78.7° 74.8° - - -
6/21 3:30am 359 1 G 3 77° 30% - - 43° 78.7° 74.8° - - -
6/21 3:20am 234 2 G 4 76° 31% - - 43° 78.7° 74.8° - - -
6/21 3:10am 222 2 G 3 76° 31% - - 43° 78.7° 74.8° - - -
6/21 3:00am 234 1 G 2 75° 32% - - 43° 78.7° 74.8° - - -
6/21 2:50am 254 1 G 3 75° 31% - - 42° 78.7° 75.1° - - -
6/21 2:40am 341 2 G 4 76° 29% - - 42° 78.7° 75.4° - - -
6/21 2:30am 321 2 G 3 76° 28% - - 41° 78.7° 75.4° - - -
6/21 2:20am 316 2 G 3 76° 28% - - 41° 78.7° 75.4° - - -
6/21 2:10am 344 1 G 4 76° 29% - - 41° 78.7° 75.4° - - -
6/21 2:00am 340 0 G 2 77° 28% - - 42° 78.7° 75.4° - - -
6/21 1:50am 171 1 G 3 78° 27% - - 41° 78.7° 75.4° - - -
6/21 1:40am 253 1 G 2 78° 27% - - 41° 78.7° 75.4° - - -
6/21 1:30am 277 1 G 3 77° 27% - - 41° 78.7° 75.4° - - -
6/21 1:20am 328 1 G 4 78° 27% - - 41° 78.7° 75.4° - - -
6/21 1:10am 71 2 G 5 78° 26% - - 41° 78.7° 75.4° - - -
6/21 1:00am 215 2 G 4 78° 29% - - 43° 78.3° 75.4° - - -
6/21 12:50am 230 2 G 2 77° 31% - - 44° 77.9° 75.4° - - -
6/21 12:40am 262 1 G 4 76° 34% - - 46° 77.9° 75.4° - - -
6/21 12:30am 197 1 G 4 77° 32% - - 45° 77.9° 76° - - -
6/21 12:20am 237 2 G 4 77° 37% - - 49° 77.4° 76° - - -
6/21 12:10am 307 1 G 4 77° 38% - - 49° 77.2° 76° - - -
6/21 12:00am 267 2 G 5 77° 38% - - 49° 98° 69.6° - - -
6/20 11:50pm 311 2 G 6 78° 37% - - 50° 98° 69.6° - - -
6/20 11:40pm 259 1 G 2 78° 36% - - 49° 98° 69.6° - - -
6/20 11:30pm 264 1 G 4 78° 36% - - 49° 98° 69.6° - - -
6/20 11:20pm 18 1 G 2 79° 36% - - 50° 98° 69.6° - - -
6/20 11:10pm 311 1 G 3 79° 36% - - 50° 98° 69.6° - - -
6/20 11:00pm 347 1 G 4 79° 36% - - 50° 98° 69.6° - - -
6/20 10:50pm 350 1 G 3 80° 35% - - 50° 98° 69.6° - - -
6/20 10:40pm 124 1 G 4 81° 33% - - 50° 98° 69.6° - - -
6/20 10:30pm 340 1 G 3 82° 31% - - 49° 98° 69.6° - - -
6/20 10:20pm 199 1 G 3 82° 31% - - 49° 98° 69.6° - - -
6/20 10:10pm 234 3 G 4 82° 31% - - 49° 98° 69.6° - - -
6/20 10:00pm 225 3 G 4 83° 31% - - 49° 98° 69.6° - - -
6/20 9:50pm 243 3 G 4 83° 32% - - 50° 98° 69.6° - - -
6/20 9:40pm 276 2 G 2 83° 32% - - 50° 98° 69.6° - - -
6/20 9:30pm 142 1 G 3 83° 32% - - 50° 98° 69.6° - - -
6/20 9:20pm 211 1 G 2 83° 32% - - 50° 98° 69.6° - - -
6/20 9:10pm 256 1 G 3 82° 33% - - 50° 98° 69.6° - - -
6/20 9:00pm 240 2 G 4 82° 33% - - 50° 98° 69.6° - - -
6/20 8:50pm 171 3 G 4 83° 33% - - 50° 98° 69.6° - - -
6/20 8:40pm 226 1 G 3 82° 34% - - 51° 98° 69.6° - - -
6/20 8:30pm 164 2 G 3 83° 33% - - 51° 98° 69.6° - - -
6/20 8:20pm 131 3 G 5 83° 33% - - 51° 98° 69.6° - - -
6/20 8:10pm 124 4 G 6 83° 32% - - 50° 98° 69.6° - - -
6/20 8:00pm 276 1 G 3 84° 31% - - 50° 98° 69.6° - - -
6/20 7:50pm 63 2 G 4 85° 30% - - 50° 98° 69.6° - - -
6/20 7:40pm 22 2 G 3 85° 30% - - 50° 98° 69.6° - - -
6/20 7:30pm 258 3 G 7 85° 30% - - 50° 98° 69.6° - - -
6/20 7:20pm 246 6 G 9 86° 30% - - 50° 98° 69.6° - - -
6/20 7:10pm 266 6 G 9 86° 29% - - 50° 98° 69.6° - - -
6/20 7:00pm 279 8 G 13 87° 28% - - 50° 98° 69.6° - - -
6/20 6:50pm 274 9 G 13 87° 28% - - 50° 98° 69.6° - - -
6/20 6:40pm 274 10 G 16 88° 27% - - 50° 98° 69.6° - - -
6/20 6:30pm 277 10 G 16 89° 27% - - 50° 98° 69.6° - - -
6/20 6:20pm 285 7 G 16 89° 26% - - 50° 98° 69.6° - - -
6/20 6:10pm 277 11 G 17 90° 26% - - 50° 98° 69.6° - - -
6/20 6:00pm 282 14 G 20 90° 26% - - 50° 98° 69.6° - - -